sensor_id;sensor_type;location;lat;lon;timestamp;P1;durP1;ratioP1;P2;durP2;ratioP2
16737;SDS011;17906;47.684;10.806;2023-06-04T00:01:50;12.43;;;6.33;;
16737;SDS011;17906;47.684;10.806;2023-06-04T00:04:17;10.07;;;6.03;;
16737;SDS011;17906;47.684;10.806;2023-06-04T00:06:44;11.57;;;5.97;;
16737;SDS011;17906;47.684;10.806;2023-06-04T00:09:10;12.37;;;6.70;;
16737;SDS011;17906;47.684;10.806;2023-06-04T00:11:37;9.87;;;6.00;;
16737;SDS011;17906;47.684;10.806;2023-06-04T00:14:06;11.30;;;6.87;;
16737;SDS011;17906;47.684;10.806;2023-06-04T00:16:32;9.33;;;5.63;;
16737;SDS011;17906;47.684;10.806;2023-06-04T00:19:00;9.23;;;5.83;;
16737;SDS011;17906;47.684;10.806;2023-06-04T00:21:28;9.77;;;5.90;;
16737;SDS011;17906;47.684;10.806;2023-06-04T00:23:54;9.20;;;5.97;;
16737;SDS011;17906;47.684;10.806;2023-06-04T00:26:21;12.17;;;5.73;;
16737;SDS011;17906;47.684;10.806;2023-06-04T00:28:47;9.47;;;6.03;;
16737;SDS011;17906;47.684;10.806;2023-06-04T00:31:13;13.80;;;6.67;;
16737;SDS011;17906;47.684;10.806;2023-06-04T00:33:40;9.70;;;5.97;;
16737;SDS011;17906;47.684;10.806;2023-06-04T00:36:07;9.83;;;6.27;;
16737;SDS011;17906;47.684;10.806;2023-06-04T00:38:35;9.37;;;6.50;;
16737;SDS011;17906;47.684;10.806;2023-06-04T00:41:01;10.50;;;6.30;;
16737;SDS011;17906;47.684;10.806;2023-06-04T00:43:28;12.17;;;6.00;;
16737;SDS011;17906;47.684;10.806;2023-06-04T00:45:57;14.20;;;6.80;;
16737;SDS011;17906;47.684;10.806;2023-06-04T00:48:23;10.10;;;6.47;;
16737;SDS011;17906;47.684;10.806;2023-06-04T00:50:50;13.13;;;6.40;;
16737;SDS011;17906;47.684;10.806;2023-06-04T00:53:17;11.30;;;5.97;;
16737;SDS011;17906;47.684;10.806;2023-06-04T00:55:45;12.20;;;6.60;;
16737;SDS011;17906;47.684;10.806;2023-06-04T00:58:11;10.03;;;6.33;;
16737;SDS011;17906;47.684;10.806;2023-06-04T01:00:40;9.93;;;5.90;;
16737;SDS011;17906;47.684;10.806;2023-06-04T01:03:09;11.83;;;6.10;;
16737;SDS011;17906;47.684;10.806;2023-06-04T01:05:37;10.77;;;5.77;;
16737;SDS011;17906;47.684;10.806;2023-06-04T01:08:05;11.50;;;5.83;;
16737;SDS011;17906;47.684;10.806;2023-06-04T01:10:33;10.20;;;6.07;;
16737;SDS011;17906;47.684;10.806;2023-06-04T01:13:01;9.17;;;5.70;;
16737;SDS011;17906;47.684;10.806;2023-06-04T01:15:28;7.80;;;5.50;;
16737;SDS011;17906;47.684;10.806;2023-06-04T01:17:56;11.90;;;5.93;;
16737;SDS011;17906;47.684;10.806;2023-06-04T01:20:29;8.83;;;6.03;;
16737;SDS011;17906;47.684;10.806;2023-06-04T01:23:08;10.17;;;5.83;;
16737;SDS011;17906;47.684;10.806;2023-06-04T01:25:37;9.33;;;5.83;;
16737;SDS011;17906;47.684;10.806;2023-06-04T01:28:06;8.60;;;6.13;;
16737;SDS011;17906;47.684;10.806;2023-06-04T01:30:33;8.90;;;5.73;;
16737;SDS011;17906;47.684;10.806;2023-06-04T01:33:00;8.53;;;5.47;;
16737;SDS011;17906;47.684;10.806;2023-06-04T01:35:27;10.40;;;6.27;;
16737;SDS011;17906;47.684;10.806;2023-06-04T01:37:53;8.57;;;5.97;;
16737;SDS011;17906;47.684;10.806;2023-06-04T01:40:20;9.70;;;5.60;;
16737;SDS011;17906;47.684;10.806;2023-06-04T01:42:47;9.30;;;6.10;;
16737;SDS011;17906;47.684;10.806;2023-06-04T01:45:15;11.57;;;5.80;;
16737;SDS011;17906;47.684;10.806;2023-06-04T01:47:41;10.40;;;5.97;;
16737;SDS011;17906;47.684;10.806;2023-06-04T01:50:08;12.03;;;5.73;;
16737;SDS011;17906;47.684;10.806;2023-06-04T01:52:34;8.47;;;5.30;;
16737;SDS011;17906;47.684;10.806;2023-06-04T01:55:01;9.20;;;5.50;;
16737;SDS011;17906;47.684;10.806;2023-06-04T01:57:28;10.37;;;6.50;;
16737;SDS011;17906;47.684;10.806;2023-06-04T01:59:54;13.17;;;6.27;;
16737;SDS011;17906;47.684;10.806;2023-06-04T02:02:22;9.23;;;6.20;;
16737;SDS011;17906;47.684;10.806;2023-06-04T02:04:49;9.93;;;5.30;;
16737;SDS011;17906;47.684;10.806;2023-06-04T02:07:17;10.03;;;5.73;;
16737;SDS011;17906;47.684;10.806;2023-06-04T02:09:46;9.33;;;6.17;;
16737;SDS011;17906;47.684;10.806;2023-06-04T02:12:12;10.53;;;5.90;;
16737;SDS011;17906;47.684;10.806;2023-06-04T02:14:39;8.70;;;5.63;;
16737;SDS011;17906;47.684;10.806;2023-06-04T02:17:06;12.40;;;6.03;;
16737;SDS011;17906;47.684;10.806;2023-06-04T02:19:40;10.30;;;6.03;;
16737;SDS011;17906;47.684;10.806;2023-06-04T02:22:10;11.07;;;5.77;;
16737;SDS011;17906;47.684;10.806;2023-06-04T02:24:36;10.07;;;5.63;;
16737;SDS011;17906;47.684;10.806;2023-06-04T02:27:03;10.00;;;6.00;;
16737;SDS011;17906;47.684;10.806;2023-06-04T02:29:30;12.37;;;6.13;;
16737;SDS011;17906;47.684;10.806;2023-06-04T02:31:57;9.30;;;5.67;;
16737;SDS011;17906;47.684;10.806;2023-06-04T02:34:23;11.03;;;6.23;;
16737;SDS011;17906;47.684;10.806;2023-06-04T02:36:51;9.17;;;5.70;;
16737;SDS011;17906;47.684;10.806;2023-06-04T02:39:17;7.97;;;5.93;;
16737;SDS011;17906;47.684;10.806;2023-06-04T02:41:44;9.97;;;5.63;;
16737;SDS011;17906;47.684;10.806;2023-06-04T02:44:10;7.97;;;5.17;;
16737;SDS011;17906;47.684;10.806;2023-06-04T02:46:37;7.37;;;4.73;;
16737;SDS011;17906;47.684;10.806;2023-06-04T02:49:04;6.00;;;4.13;;
16737;SDS011;17906;47.684;10.806;2023-06-04T02:51:30;7.50;;;4.80;;
16737;SDS011;17906;47.684;10.806;2023-06-04T02:54:00;8.93;;;5.13;;
16737;SDS011;17906;47.684;10.806;2023-06-04T02:56:26;8.43;;;4.90;;
16737;SDS011;17906;47.684;10.806;2023-06-04T02:58:53;9.23;;;5.53;;
16737;SDS011;17906;47.684;10.806;2023-06-04T03:01:20;10.13;;;5.67;;
16737;SDS011;17906;47.684;10.806;2023-06-04T03:03:47;8.97;;;5.60;;
16737;SDS011;17906;47.684;10.806;2023-06-04T03:06:13;8.40;;;5.50;;
16737;SDS011;17906;47.684;10.806;2023-06-04T03:08:40;8.80;;;5.40;;
16737;SDS011;17906;47.684;10.806;2023-06-04T03:11:08;9.60;;;5.23;;
16737;SDS011;17906;47.684;10.806;2023-06-04T03:13:34;8.87;;;5.50;;
16737;SDS011;17906;47.684;10.806;2023-06-04T03:16:01;8.63;;;5.43;;
16737;SDS011;17906;47.684;10.806;2023-06-04T03:18:27;9.30;;;5.37;;
16737;SDS011;17906;47.684;10.806;2023-06-04T03:20:54;10.10;;;5.93;;
16737;SDS011;17906;47.684;10.806;2023-06-04T03:23:21;8.87;;;5.60;;
16737;SDS011;17906;47.684;10.806;2023-06-04T03:25:47;9.70;;;5.50;;
16737;SDS011;17906;47.684;10.806;2023-06-04T03:28:15;8.67;;;5.50;;
16737;SDS011;17906;47.684;10.806;2023-06-04T03:30:41;9.70;;;6.03;;
16737;SDS011;17906;47.684;10.806;2023-06-04T03:33:08;8.43;;;5.40;;
16737;SDS011;17906;47.684;10.806;2023-06-04T03:35:35;9.50;;;5.63;;
16737;SDS011;17906;47.684;10.806;2023-06-04T03:38:01;9.37;;;5.90;;
16737;SDS011;17906;47.684;10.806;2023-06-04T03:40:27;9.27;;;5.73;;
16737;SDS011;17906;47.684;10.806;2023-06-04T03:42:54;11.00;;;5.33;;
16737;SDS011;17906;47.684;10.806;2023-06-04T03:45:21;8.83;;;5.13;;
16737;SDS011;17906;47.684;10.806;2023-06-04T03:47:48;12.83;;;6.10;;
16737;SDS011;17906;47.684;10.806;2023-06-04T03:50:14;10.80;;;6.33;;
16737;SDS011;17906;47.684;10.806;2023-06-04T03:52:40;8.73;;;6.30;;
16737;SDS011;17906;47.684;10.806;2023-06-04T03:55:07;10.13;;;6.30;;
16737;SDS011;17906;47.684;10.806;2023-06-04T03:57:33;11.20;;;6.33;;
16737;SDS011;17906;47.684;10.806;2023-06-04T04:00:00;9.40;;;5.33;;
16737;SDS011;17906;47.684;10.806;2023-06-04T04:02:29;11.87;;;5.90;;
16737;SDS011;17906;47.684;10.806;2023-06-04T04:04:56;9.67;;;5.93;;
16737;SDS011;17906;47.684;10.806;2023-06-04T04:07:22;8.80;;;6.20;;
16737;SDS011;17906;47.684;10.806;2023-06-04T04:09:48;11.80;;;6.10;;
16737;SDS011;17906;47.684;10.806;2023-06-04T04:12:15;10.70;;;6.17;;
16737;SDS011;17906;47.684;10.806;2023-06-04T04:14:42;12.07;;;6.80;;
16737;SDS011;17906;47.684;10.806;2023-06-04T04:17:08;11.10;;;6.67;;
16737;SDS011;17906;47.684;10.806;2023-06-04T04:19:36;9.70;;;6.47;;
16737;SDS011;17906;47.684;10.806;2023-06-04T04:22:03;12.03;;;7.13;;
16737;SDS011;17906;47.684;10.806;2023-06-04T04:24:30;13.20;;;6.80;;
16737;SDS011;17906;47.684;10.806;2023-06-04T04:26:59;14.77;;;6.70;;
16737;SDS011;17906;47.684;10.806;2023-06-04T04:29:28;9.53;;;5.80;;
16737;SDS011;17906;47.684;10.806;2023-06-04T04:31:57;11.93;;;6.83;;
16737;SDS011;17906;47.684;10.806;2023-06-04T04:34:25;10.20;;;6.33;;
16737;SDS011;17906;47.684;10.806;2023-06-04T04:36:53;14.40;;;6.63;;
16737;SDS011;17906;47.684;10.806;2023-06-04T04:39:22;11.37;;;6.63;;
16737;SDS011;17906;47.684;10.806;2023-06-04T04:41:49;12.17;;;7.03;;
16737;SDS011;17906;47.684;10.806;2023-06-04T04:44:15;11.47;;;7.20;;
16737;SDS011;17906;47.684;10.806;2023-06-04T04:46:42;13.23;;;7.27;;
16737;SDS011;17906;47.684;10.806;2023-06-04T04:49:08;13.70;;;7.90;;
16737;SDS011;17906;47.684;10.806;2023-06-04T04:51:34;15.07;;;8.43;;
16737;SDS011;17906;47.684;10.806;2023-06-04T04:54:03;13.13;;;8.10;;
16737;SDS011;17906;47.684;10.806;2023-06-04T04:56:29;13.93;;;8.70;;
16737;SDS011;17906;47.684;10.806;2023-06-04T04:58:55;16.93;;;9.00;;
16737;SDS011;17906;47.684;10.806;2023-06-04T05:01:22;12.90;;;9.30;;
16737;SDS011;17906;47.684;10.806;2023-06-04T05:03:49;16.50;;;8.93;;
16737;SDS011;17906;47.684;10.806;2023-06-04T05:06:16;15.33;;;9.27;;
16737;SDS011;17906;47.684;10.806;2023-06-04T05:08:42;13.70;;;8.70;;
16737;SDS011;17906;47.684;10.806;2023-06-04T05:11:10;14.13;;;8.93;;
16737;SDS011;17906;47.684;10.806;2023-06-04T05:13:36;12.87;;;8.57;;
16737;SDS011;17906;47.684;10.806;2023-06-04T05:16:03;15.00;;;9.00;;
16737;SDS011;17906;47.684;10.806;2023-06-04T05:18:31;13.37;;;8.30;;
16737;SDS011;17906;47.684;10.806;2023-06-04T05:20:58;16.73;;;9.40;;
16737;SDS011;17906;47.684;10.806;2023-06-04T05:23:25;14.03;;;9.47;;
16737;SDS011;17906;47.684;10.806;2023-06-04T05:25:51;14.97;;;8.77;;
16737;SDS011;17906;47.684;10.806;2023-06-04T05:28:19;11.63;;;7.73;;
16737;SDS011;17906;47.684;10.806;2023-06-04T05:30:50;15.47;;;8.87;;
16737;SDS011;17906;47.684;10.806;2023-06-04T05:33:17;11.97;;;7.73;;
16737;SDS011;17906;47.684;10.806;2023-06-04T05:35:43;13.40;;;7.83;;
16737;SDS011;17906;47.684;10.806;2023-06-04T05:38:10;12.30;;;8.03;;
16737;SDS011;17906;47.684;10.806;2023-06-04T05:40:42;14.47;;;8.40;;
16737;SDS011;17906;47.684;10.806;2023-06-04T05:43:08;11.53;;;7.70;;
16737;SDS011;17906;47.684;10.806;2023-06-04T05:45:36;13.50;;;7.47;;
16737;SDS011;17906;47.684;10.806;2023-06-04T05:48:02;12.80;;;8.07;;
16737;SDS011;17906;47.684;10.806;2023-06-04T05:50:29;11.83;;;7.90;;
16737;SDS011;17906;47.684;10.806;2023-06-04T05:52:56;12.87;;;8.07;;
16737;SDS011;17906;47.684;10.806;2023-06-04T05:55:22;14.20;;;7.63;;
16737;SDS011;17906;47.684;10.806;2023-06-04T05:57:49;11.17;;;7.90;;
16737;SDS011;17906;47.684;10.806;2023-06-04T06:00:17;11.73;;;7.50;;
16737;SDS011;17906;47.684;10.806;2023-06-04T06:02:45;12.00;;;7.70;;
16737;SDS011;17906;47.684;10.806;2023-06-04T06:05:14;11.90;;;7.23;;
16737;SDS011;17906;47.684;10.806;2023-06-04T06:07:40;13.77;;;7.83;;
16737;SDS011;17906;47.684;10.806;2023-06-04T06:10:07;11.85;;;7.63;;
16737;SDS011;17906;47.684;10.806;2023-06-04T06:12:34;10.30;;;6.70;;
16737;SDS011;17906;47.684;10.806;2023-06-04T06:15:00;10.85;;;7.13;;
16737;SDS011;17906;47.684;10.806;2023-06-04T06:17:26;11.57;;;6.57;;
16737;SDS011;17906;47.684;10.806;2023-06-04T06:19:55;10.88;;;6.70;;
16737;SDS011;17906;47.684;10.806;2023-06-04T06:22:21;9.23;;;6.32;;
16737;SDS011;17906;47.684;10.806;2023-06-04T06:24:47;8.57;;;6.13;;
16737;SDS011;17906;47.684;10.806;2023-06-04T06:27:14;10.32;;;6.30;;
16737;SDS011;17906;47.684;10.806;2023-06-04T06:29:41;8.20;;;5.85;;
16737;SDS011;17906;47.684;10.806;2023-06-04T06:32:08;10.30;;;5.95;;
16737;SDS011;17906;47.684;10.806;2023-06-04T06:34:34;7.78;;;5.43;;
16737;SDS011;17906;47.684;10.806;2023-06-04T06:37:03;8.98;;;5.65;;
16737;SDS011;17906;47.684;10.806;2023-06-04T06:39:30;6.93;;;5.15;;
16737;SDS011;17906;47.684;10.806;2023-06-04T06:41:57;8.57;;;5.82;;
16737;SDS011;17906;47.684;10.806;2023-06-04T06:44:24;6.20;;;4.93;;
16737;SDS011;17906;47.684;10.806;2023-06-04T06:46:50;8.38;;;5.50;;
16737;SDS011;17906;47.684;10.806;2023-06-04T06:49:16;8.70;;;5.35;;
16737;SDS011;17906;47.684;10.806;2023-06-04T06:51:43;7.97;;;5.90;;
16737;SDS011;17906;47.684;10.806;2023-06-04T06:54:11;11.00;;;5.20;;
16737;SDS011;17906;47.684;10.806;2023-06-04T06:56:40;11.43;;;6.43;;
16737;SDS011;17906;47.684;10.806;2023-06-04T06:59:07;10.75;;;5.63;;
16737;SDS011;17906;47.684;10.806;2023-06-04T07:01:34;7.22;;;5.43;;
16737;SDS011;17906;47.684;10.806;2023-06-04T07:04:00;12.57;;;5.53;;
16737;SDS011;17906;47.684;10.806;2023-06-04T07:06:27;11.73;;;5.72;;
16737;SDS011;17906;47.684;10.806;2023-06-04T07:08:53;9.68;;;5.80;;
16737;SDS011;17906;47.684;10.806;2023-06-04T07:11:21;11.93;;;8.38;;
16737;SDS011;17906;47.684;10.806;2023-06-04T07:13:48;10.30;;;6.07;;
16737;SDS011;17906;47.684;10.806;2023-06-04T07:16:14;11.57;;;6.07;;
16737;SDS011;17906;47.684;10.806;2023-06-04T07:18:41;8.30;;;5.13;;
16737;SDS011;17906;47.684;10.806;2023-06-04T07:21:08;9.90;;;5.30;;
16737;SDS011;17906;47.684;10.806;2023-06-04T07:23:34;6.63;;;4.72;;
16737;SDS011;17906;47.684;10.806;2023-06-04T07:26:01;7.90;;;5.07;;
16737;SDS011;17906;47.684;10.806;2023-06-04T07:28:28;7.07;;;5.03;;
16737;SDS011;17906;47.684;10.806;2023-06-04T07:30:55;5.97;;;4.40;;
16737;SDS011;17906;47.684;10.806;2023-06-04T07:33:23;6.07;;;4.63;;
16737;SDS011;17906;47.684;10.806;2023-06-04T07:35:50;10.63;;;5.20;;
16737;SDS011;17906;47.684;10.806;2023-06-04T07:38:16;8.25;;;5.10;;
16737;SDS011;17906;47.684;10.806;2023-06-04T07:40:43;6.40;;;4.18;;
16737;SDS011;17906;47.684;10.806;2023-06-04T07:43:12;5.75;;;4.18;;
16737;SDS011;17906;47.684;10.806;2023-06-04T07:45:40;7.47;;;4.22;;
16737;SDS011;17906;47.684;10.806;2023-06-04T07:48:08;6.43;;;3.97;;
16737;SDS011;17906;47.684;10.806;2023-06-04T07:50:35;9.07;;;4.50;;
16737;SDS011;17906;47.684;10.806;2023-06-04T07:53:01;7.78;;;3.47;;
16737;SDS011;17906;47.684;10.806;2023-06-04T07:55:27;7.35;;;3.83;;
16737;SDS011;17906;47.684;10.806;2023-06-04T07:57:54;8.50;;;4.03;;
16737;SDS011;17906;47.684;10.806;2023-06-04T08:00:20;7.47;;;4.10;;
16737;SDS011;17906;47.684;10.806;2023-06-04T08:02:48;8.90;;;4.05;;
16737;SDS011;17906;47.684;10.806;2023-06-04T08:05:15;7.20;;;3.75;;
16737;SDS011;17906;47.684;10.806;2023-06-04T08:07:42;6.90;;;4.13;;
16737;SDS011;17906;47.684;10.806;2023-06-04T08:10:08;6.50;;;4.32;;
16737;SDS011;17906;47.684;10.806;2023-06-04T08:12:35;7.20;;;3.75;;
16737;SDS011;17906;47.684;10.806;2023-06-04T08:15:02;8.27;;;3.83;;
16737;SDS011;17906;47.684;10.806;2023-06-04T08:17:29;8.52;;;3.70;;
16737;SDS011;17906;47.684;10.806;2023-06-04T08:19:57;6.35;;;3.90;;
16737;SDS011;17906;47.684;10.806;2023-06-04T08:22:23;7.28;;;3.95;;
16737;SDS011;17906;47.684;10.806;2023-06-04T08:24:49;6.22;;;3.90;;
16737;SDS011;17906;47.684;10.806;2023-06-04T08:27:16;7.97;;;3.92;;
16737;SDS011;17906;47.684;10.806;2023-06-04T08:29:42;5.03;;;3.78;;
16737;SDS011;17906;47.684;10.806;2023-06-04T08:32:09;9.98;;;3.92;;
16737;SDS011;17906;47.684;10.806;2023-06-04T08:34:36;6.65;;;4.10;;
16737;SDS011;17906;47.684;10.806;2023-06-04T08:37:03;6.72;;;4.05;;
16737;SDS011;17906;47.684;10.806;2023-06-04T08:39:30;13.25;;;4.40;;
16737;SDS011;17906;47.684;10.806;2023-06-04T08:41:59;8.18;;;3.92;;
16737;SDS011;17906;47.684;10.806;2023-06-04T08:44:26;6.10;;;4.05;;
16737;SDS011;17906;47.684;10.806;2023-06-04T08:46:53;6.78;;;3.60;;
16737;SDS011;17906;47.684;10.806;2023-06-04T08:49:20;6.00;;;3.80;;
16737;SDS011;17906;47.684;10.806;2023-06-04T08:51:47;5.03;;;3.10;;
16737;SDS011;17906;47.684;10.806;2023-06-04T08:54:15;4.97;;;3.17;;
16737;SDS011;17906;47.684;10.806;2023-06-04T08:56:42;5.03;;;3.42;;
16737;SDS011;17906;47.684;10.806;2023-06-04T08:59:09;5.93;;;3.97;;
16737;SDS011;17906;47.684;10.806;2023-06-04T09:01:36;6.28;;;3.90;;
16737;SDS011;17906;47.684;10.806;2023-06-04T09:04:03;6.50;;;3.70;;
16737;SDS011;17906;47.684;10.806;2023-06-04T09:06:30;5.60;;;3.90;;
16737;SDS011;17906;47.684;10.806;2023-06-04T09:08:58;7.20;;;3.88;;
16737;SDS011;17906;47.684;10.806;2023-06-04T09:11:27;6.53;;;3.85;;
16737;SDS011;17906;47.684;10.806;2023-06-04T09:13:59;6.95;;;4.05;;
16737;SDS011;17906;47.684;10.806;2023-06-04T09:16:27;8.45;;;4.47;;
16737;SDS011;17906;47.684;10.806;2023-06-04T09:19:00;7.20;;;4.45;;
16737;SDS011;17906;47.684;10.806;2023-06-04T09:21:28;5.88;;;3.60;;
16737;SDS011;17906;47.684;10.806;2023-06-04T09:23:55;6.65;;;4.13;;
16737;SDS011;17906;47.684;10.806;2023-06-04T09:26:21;8.75;;;3.83;;
16737;SDS011;17906;47.684;10.806;2023-06-04T09:28:49;6.72;;;4.10;;
16737;SDS011;17906;47.684;10.806;2023-06-04T09:31:18;8.00;;;4.35;;
16737;SDS011;17906;47.684;10.806;2023-06-04T09:33:47;8.48;;;4.93;;
16737;SDS011;17906;47.684;10.806;2023-06-04T09:36:14;6.03;;;4.03;;
16737;SDS011;17906;47.684;10.806;2023-06-04T09:38:41;6.30;;;4.35;;
16737;SDS011;17906;47.684;10.806;2023-06-04T09:41:10;10.07;;;4.85;;
16737;SDS011;17906;47.684;10.806;2023-06-04T09:43:37;5.47;;;4.05;;
16737;SDS011;17906;47.684;10.806;2023-06-04T09:46:12;5.97;;;4.40;;
16737;SDS011;17906;47.684;10.806;2023-06-04T09:48:39;4.65;;;4.03;;
16737;SDS011;17906;47.684;10.806;2023-06-04T09:51:06;6.07;;;4.32;;
16737;SDS011;17906;47.684;10.806;2023-06-04T09:53:32;5.15;;;4.28;;
16737;SDS011;17906;47.684;10.806;2023-06-04T09:55:59;10.15;;;5.07;;
16737;SDS011;17906;47.684;10.806;2023-06-04T09:58:25;12.48;;;7.35;;
16737;SDS011;17906;47.684;10.806;2023-06-04T10:00:52;14.48;;;9.52;;
16737;SDS011;17906;47.684;10.806;2023-06-04T10:03:21;6.35;;;4.57;;
16737;SDS011;17906;47.684;10.806;2023-06-04T10:05:50;7.72;;;4.45;;
16737;SDS011;17906;47.684;10.806;2023-06-04T10:08:17;8.15;;;4.95;;
16737;SDS011;17906;47.684;10.806;2023-06-04T10:10:45;10.10;;;7.53;;
16737;SDS011;17906;47.684;10.806;2023-06-04T10:13:14;17.35;;;11.02;;
16737;SDS011;17906;47.684;10.806;2023-06-04T10:15:42;7.43;;;4.53;;
16737;SDS011;17906;47.684;10.806;2023-06-04T10:18:09;6.88;;;4.50;;
16737;SDS011;17906;47.684;10.806;2023-06-04T10:20:37;8.50;;;4.60;;
16737;SDS011;17906;47.684;10.806;2023-06-04T10:23:04;7.72;;;4.47;;
16737;SDS011;17906;47.684;10.806;2023-06-04T10:25:31;6.68;;;4.25;;
16737;SDS011;17906;47.684;10.806;2023-06-04T10:27:57;8.68;;;4.63;;
16737;SDS011;17906;47.684;10.806;2023-06-04T10:30:24;12.65;;;6.28;;
16737;SDS011;17906;47.684;10.806;2023-06-04T10:32:50;11.40;;;5.47;;
16737;SDS011;17906;47.684;10.806;2023-06-04T10:35:17;7.10;;;4.07;;
16737;SDS011;17906;47.684;10.806;2023-06-04T10:37:44;7.20;;;4.82;;
16737;SDS011;17906;47.684;10.806;2023-06-04T10:40:13;6.07;;;4.18;;
16737;SDS011;17906;47.684;10.806;2023-06-04T10:42:41;7.07;;;3.97;;
16737;SDS011;17906;47.684;10.806;2023-06-04T10:45:07;7.03;;;4.30;;
16737;SDS011;17906;47.684;10.806;2023-06-04T10:47:35;6.38;;;4.32;;
16737;SDS011;17906;47.684;10.806;2023-06-04T10:50:07;8.40;;;3.92;;
16737;SDS011;17906;47.684;10.806;2023-06-04T10:52:34;6.03;;;3.63;;
16737;SDS011;17906;47.684;10.806;2023-06-04T10:55:04;6.97;;;4.35;;
16737;SDS011;17906;47.684;10.806;2023-06-04T10:57:31;5.15;;;4.13;;
16737;SDS011;17906;47.684;10.806;2023-06-04T10:59:58;7.40;;;4.18;;
16737;SDS011;17906;47.684;10.806;2023-06-04T11:02:25;9.48;;;4.20;;
16737;SDS011;17906;47.684;10.806;2023-06-04T11:05:01;6.90;;;3.90;;
16737;SDS011;17906;47.684;10.806;2023-06-04T11:07:40;6.32;;;3.65;;
16737;SDS011;17906;47.684;10.806;2023-06-04T11:10:09;6.38;;;3.83;;
16737;SDS011;17906;47.684;10.806;2023-06-04T11:12:43;6.53;;;4.00;;
16737;SDS011;17906;47.684;10.806;2023-06-04T11:15:09;6.00;;;4.30;;
16737;SDS011;17906;47.684;10.806;2023-06-04T11:17:35;10.07;;;4.30;;
16737;SDS011;17906;47.684;10.806;2023-06-04T11:20:02;8.25;;;4.43;;
16737;SDS011;17906;47.684;10.806;2023-06-04T11:22:31;6.35;;;4.38;;
16737;SDS011;17906;47.684;10.806;2023-06-04T11:24:58;7.72;;;4.10;;
16737;SDS011;17906;47.684;10.806;2023-06-04T11:27:26;6.05;;;4.15;;
16737;SDS011;17906;47.684;10.806;2023-06-04T11:29:52;8.55;;;4.18;;
16737;SDS011;17906;47.684;10.806;2023-06-04T11:32:22;5.68;;;4.30;;
16737;SDS011;17906;47.684;10.806;2023-06-04T11:34:49;6.72;;;3.67;;
16737;SDS011;17906;47.684;10.806;2023-06-04T11:37:15;6.57;;;4.18;;
16737;SDS011;17906;47.684;10.806;2023-06-04T11:39:41;7.18;;;4.13;;
16737;SDS011;17906;47.684;10.806;2023-06-04T11:42:09;5.35;;;4.15;;
16737;SDS011;17906;47.684;10.806;2023-06-04T11:44:37;5.60;;;3.90;;
16737;SDS011;17906;47.684;10.806;2023-06-04T11:47:10;6.90;;;4.28;;
16737;SDS011;17906;47.684;10.806;2023-06-04T11:49:37;5.50;;;4.15;;
16737;SDS011;17906;47.684;10.806;2023-06-04T11:52:04;6.13;;;4.20;;
16737;SDS011;17906;47.684;10.806;2023-06-04T11:54:31;6.93;;;4.07;;
16737;SDS011;17906;47.684;10.806;2023-06-04T11:57:01;8.13;;;4.15;;
16737;SDS011;17906;47.684;10.806;2023-06-04T11:59:30;5.78;;;3.92;;
16737;SDS011;17906;47.684;10.806;2023-06-04T12:01:58;7.40;;;4.10;;
16737;SDS011;17906;47.684;10.806;2023-06-04T12:04:29;5.28;;;3.38;;
16737;SDS011;17906;47.684;10.806;2023-06-04T12:06:55;7.72;;;4.20;;
16737;SDS011;17906;47.684;10.806;2023-06-04T12:09:23;6.65;;;4.15;;
16737;SDS011;17906;47.684;10.806;2023-06-04T12:11:56;5.95;;;4.00;;
16737;SDS011;17906;47.684;10.806;2023-06-04T12:14:23;7.30;;;3.90;;
16737;SDS011;17906;47.684;10.806;2023-06-04T12:16:55;9.25;;;4.13;;
16737;SDS011;17906;47.684;10.806;2023-06-04T12:19:23;6.72;;;4.07;;
16737;SDS011;17906;47.684;10.806;2023-06-04T12:21:58;8.30;;;3.92;;
16737;SDS011;17906;47.684;10.806;2023-06-04T12:24:25;7.30;;;4.07;;
16737;SDS011;17906;47.684;10.806;2023-06-04T12:27:00;5.18;;;3.63;;
16737;SDS011;17906;47.684;10.806;2023-06-04T12:29:27;6.38;;;4.00;;
16737;SDS011;17906;47.684;10.806;2023-06-04T12:32:01;6.05;;;4.13;;
16737;SDS011;17906;47.684;10.806;2023-06-04T12:34:29;6.40;;;4.00;;
16737;SDS011;17906;47.684;10.806;2023-06-04T12:36:55;5.53;;;3.95;;
16737;SDS011;17906;47.684;10.806;2023-06-04T12:39:22;6.47;;;3.88;;
16737;SDS011;17906;47.684;10.806;2023-06-04T12:41:48;5.35;;;3.67;;
16737;SDS011;17906;47.684;10.806;2023-06-04T12:44:15;7.53;;;4.05;;
16737;SDS011;17906;47.684;10.806;2023-06-04T12:46:41;5.60;;;3.92;;
16737;SDS011;17906;47.684;10.806;2023-06-04T12:49:08;8.25;;;4.43;;
16737;SDS011;17906;47.684;10.806;2023-06-04T12:51:35;5.70;;;4.03;;
16737;SDS011;17906;47.684;10.806;2023-06-04T12:54:03;10.00;;;3.90;;
16737;SDS011;17906;47.684;10.806;2023-06-04T12:56:30;6.72;;;4.30;;
16737;SDS011;17906;47.684;10.806;2023-06-04T12:58:56;5.63;;;3.75;;
16737;SDS011;17906;47.684;10.806;2023-06-04T13:01:22;7.97;;;4.50;;
16737;SDS011;17906;47.684;10.806;2023-06-04T13:03:49;5.32;;;4.28;;
16737;SDS011;17906;47.684;10.806;2023-06-04T13:06:15;5.45;;;3.72;;
16737;SDS011;17906;47.684;10.806;2023-06-04T13:08:43;5.90;;;3.85;;
16737;SDS011;17906;47.684;10.806;2023-06-04T13:11:10;10.10;;;4.35;;
16737;SDS011;17906;47.684;10.806;2023-06-04T13:13:37;6.30;;;4.20;;
16737;SDS011;17906;47.684;10.806;2023-06-04T13:16:03;6.88;;;3.78;;
16737;SDS011;17906;47.684;10.806;2023-06-04T13:18:29;6.15;;;3.95;;
16737;SDS011;17906;47.684;10.806;2023-06-04T13:20:56;7.30;;;4.30;;
16737;SDS011;17906;47.684;10.806;2023-06-04T13:23:22;6.88;;;4.30;;
16737;SDS011;17906;47.684;10.806;2023-06-04T13:25:50;9.65;;;5.32;;
16737;SDS011;17906;47.684;10.806;2023-06-04T13:28:17;7.30;;;4.05;;
16737;SDS011;17906;47.684;10.806;2023-06-04T13:30:43;15.75;;;4.60;;
16737;SDS011;17906;47.684;10.806;2023-06-04T13:33:10;5.47;;;3.58;;
16737;SDS011;17906;47.684;10.806;2023-06-04T13:35:36;7.65;;;4.10;;
16737;SDS011;17906;47.684;10.806;2023-06-04T13:38:04;10.18;;;3.75;;
16737;SDS011;17906;47.684;10.806;2023-06-04T13:40:30;6.13;;;4.00;;
16737;SDS011;17906;47.684;10.806;2023-06-04T13:42:58;6.13;;;4.00;;
16737;SDS011;17906;47.684;10.806;2023-06-04T13:45:24;6.57;;;3.53;;
16737;SDS011;17906;47.684;10.806;2023-06-04T13:47:51;6.78;;;3.85;;
16737;SDS011;17906;47.684;10.806;2023-06-04T13:50:17;5.10;;;3.58;;
16737;SDS011;17906;47.684;10.806;2023-06-04T13:52:44;5.70;;;4.07;;
16737;SDS011;17906;47.684;10.806;2023-06-04T13:55:11;7.25;;;4.05;;
16737;SDS011;17906;47.684;10.806;2023-06-04T13:57:38;6.60;;;3.42;;
16737;SDS011;17906;47.684;10.806;2023-06-04T14:00:06;6.40;;;3.80;;
16737;SDS011;17906;47.684;10.806;2023-06-04T14:02:33;6.93;;;3.78;;
16737;SDS011;17906;47.684;10.806;2023-06-04T14:05:00;6.32;;;3.67;;
16737;SDS011;17906;47.684;10.806;2023-06-04T14:07:26;6.43;;;4.28;;
16737;SDS011;17906;47.684;10.806;2023-06-04T14:09:52;4.60;;;3.63;;
16737;SDS011;17906;47.684;10.806;2023-06-04T14:12:20;5.93;;;3.63;;
16737;SDS011;17906;47.684;10.806;2023-06-04T14:14:46;7.30;;;3.80;;
16737;SDS011;17906;47.684;10.806;2023-06-04T14:17:14;9.45;;;3.85;;
16737;SDS011;17906;47.684;10.806;2023-06-04T14:19:40;7.10;;;4.07;;
16737;SDS011;17906;47.684;10.806;2023-06-04T14:22:07;5.88;;;3.97;;
16737;SDS011;17906;47.684;10.806;2023-06-04T14:24:33;7.38;;;3.80;;
16737;SDS011;17906;47.684;10.806;2023-06-04T14:26:59;6.10;;;3.60;;
16737;SDS011;17906;47.684;10.806;2023-06-04T14:29:26;6.78;;;3.47;;
16737;SDS011;17906;47.684;10.806;2023-06-04T14:31:52;7.00;;;3.75;;